Kilmaurs, United Kingdom
Current Conditions -  °F | °C
As of 8:20 PM on Sunday 25 Jan 2015 (Local Time) from EGPK Reporting Station
Moderate Rain Moderate Rain  
Wind Chill:   Ceiling: 1700
Heat Index:   Visibility: 6mi
Dew Point:   Wind: 15mph
Humidity: 93%   Direction: 250°WSW
Pressure: 30.03"   Gusts: NA
Location:  55.64°N, 4.53°W
Report Text: EGPK 252020Z 25013KT 9999 RA FEW004 BKN017 09/08 Q1017
Loading
Personal Weather Stations






























Interactive Weather Map New forecast layout! Learn more

10-Day Weather Forecast

Advertisements
Track Severe Weather on mobile